createdAt,value
2017-08-11T00:01:28.040Z,10.52
2017-08-11T00:03:56.368Z,11.20
2017-08-11T00:06:24.718Z,11.14
2017-08-11T00:08:53.031Z,11.06
2017-08-11T00:11:21.351Z,11.20
2017-08-11T00:13:49.697Z,10.76
2017-08-11T00:16:18.073Z,10.72
2017-08-11T00:18:46.407Z,12.04
2017-08-11T00:21:14.718Z,10.06
2017-08-11T00:23:43.055Z,10.78
2017-08-11T00:26:11.366Z,10.94
2017-08-11T00:28:39.712Z,11.94
2017-08-11T00:31:08.031Z,11.64
2017-08-11T00:33:36.343Z,11.38
2017-08-11T00:36:04.684Z,11.50
2017-08-11T00:38:32.996Z,12.08
2017-08-11T00:41:01.340Z,13.52
2017-08-11T00:43:29.704Z,12.52
2017-08-11T00:45:58.038Z,13.46
2017-08-11T00:48:26.363Z,12.10
2017-08-11T00:50:53.949Z,15.08
2017-08-11T00:53:22.263Z,15.72
2017-08-11T00:55:50.583Z,14.32
2017-08-11T00:58:18.918Z,14.32
2017-08-11T01:00:46.467Z,16.74
2017-08-11T01:03:14.807Z,15.58
2017-08-11T01:05:43.123Z,17.96
2017-08-11T01:08:11.464Z,16.54
2017-08-11T01:10:39.784Z,17.44
2017-08-11T01:13:08.131Z,16.32
2017-08-11T01:15:36.449Z,16.70
2017-08-11T01:18:04.765Z,19.10
2017-08-11T01:20:33.102Z,18.84
2017-08-11T01:23:01.431Z,18.72
2017-08-11T01:25:29.783Z,19.50
2017-08-11T01:27:58.106Z,18.60
2017-08-11T01:30:26.446Z,20.86
2017-08-11T01:32:54.770Z,20.90
2017-08-11T01:35:23.116Z,19.06
2017-08-11T01:37:51.427Z,19.24
2017-08-11T01:40:19.743Z,22.40
2017-08-11T01:42:48.082Z,21.84
2017-08-11T01:45:16.391Z,21.08
2017-08-11T01:47:44.724Z,22.00
2017-08-11T01:50:13.049Z,19.86
2017-08-11T01:52:41.391Z,21.66
2017-08-11T01:55:09.710Z,21.34
2017-08-11T01:57:38.051Z,22.28
2017-08-11T02:00:06.371Z,23.60
2017-08-11T02:02:34.716Z,22.50
2017-08-11T02:05:03.031Z,22.34
2017-08-11T02:07:31.351Z,21.12
2017-08-11T02:09:59.690Z,22.94
2017-08-11T02:12:28.007Z,23.40
2017-08-11T02:14:56.356Z,24.18
2017-08-11T02:17:24.670Z,22.52
2017-08-11T02:19:52.994Z,24.72
2017-08-11T02:22:21.314Z,23.50
2017-08-11T02:24:49.674Z,22.16
2017-08-11T02:27:17.991Z,22.94
2017-08-11T02:29:46.304Z,23.88
2017-08-11T02:32:14.639Z,26.66
2017-08-11T02:34:42.957Z,26.94
2017-08-11T02:37:11.300Z,28.88
2017-08-11T02:39:39.611Z,24.82
2017-08-11T02:42:07.951Z,26.02
2017-08-11T02:44:36.272Z,25.66
2017-08-11T02:47:04.611Z,24.02
2017-08-11T02:49:32.924Z,24.92
2017-08-11T02:52:01.241Z,23.20
2017-08-11T02:54:29.595Z,23.94
2017-08-11T02:56:57.911Z,26.40
2017-08-11T02:59:26.247Z,24.80
2017-08-11T03:01:54.565Z,26.88
2017-08-11T03:04:22.899Z,28.50
2017-08-11T03:06:51.211Z,26.92
2017-08-11T03:09:19.574Z,28.20
2017-08-11T03:11:47.908Z,28.68
2017-08-11T03:14:16.230Z,30.92
2017-08-11T03:16:44.580Z,30.00
2017-08-11T03:19:12.894Z,31.64
2017-08-11T03:21:41.227Z,30.66
2017-08-11T03:24:09.543Z,31.74
2017-08-11T03:26:37.894Z,29.42
2017-08-11T03:29:06.216Z,31.36
2017-08-11T03:31:34.531Z,30.78
2017-08-11T03:34:02.856Z,30.94
2017-08-11T03:36:31.171Z,28.60
2017-08-11T03:38:59.508Z,31.76
2017-08-11T03:41:27.872Z,29.26
2017-08-11T03:43:56.211Z,29.20
2017-08-11T03:46:24.719Z,28.60
2017-08-11T03:48:53.060Z,28.88
2017-08-11T03:51:21.376Z,29.28
2017-08-11T03:53:49.720Z,28.52
2017-08-11T03:56:18.032Z,28.42
2017-08-11T03:58:46.355Z,27.98
2017-08-11T04:01:14.700Z,28.50
2017-08-11T04:03:43.015Z,29.32
2017-08-11T04:06:11.352Z,26.44
2017-08-11T04:08:39.667Z,28.22
2017-08-11T04:11:08.021Z,29.62
2017-08-11T04:13:36.348Z,27.74
2017-08-11T04:16:04.665Z,27.70
2017-08-11T04:18:32.999Z,27.12
2017-08-11T04:21:01.310Z,26.62
2017-08-11T04:23:29.652Z,27.36
2017-08-11T04:25:57.968Z,28.40
2017-08-11T04:28:26.332Z,28.34
2017-08-11T04:30:54.649Z,25.92
2017-08-11T04:33:22.963Z,25.40
2017-08-11T04:35:51.296Z,24.60
2017-08-11T04:38:19.619Z,26.96
2017-08-11T04:40:47.966Z,25.06
2017-08-11T04:43:16.285Z,25.40
2017-08-11T04:45:44.624Z,25.92
2017-08-11T04:48:12.944Z,23.04
2017-08-11T04:50:41.320Z,22.70
2017-08-11T04:53:09.636Z,23.84
2017-08-11T04:55:37.951Z,22.34
2017-08-11T04:58:06.291Z,22.68
2017-08-11T05:00:34.611Z,23.18
2017-08-11T05:03:02.951Z,23.48
2017-08-11T05:05:31.271Z,22.64
2017-08-11T05:07:59.608Z,23.06
2017-08-11T05:10:27.929Z,21.24
2017-08-11T05:12:55.515Z,23.18
2017-08-11T05:15:23.830Z,20.42
2017-08-11T05:17:52.151Z,21.84
2017-08-11T05:20:20.497Z,21.42
2017-08-11T05:25:16.137Z,21.56
2017-08-11T05:27:44.451Z,23.02
2017-08-11T05:30:12.796Z,22.38
2017-08-11T05:32:41.125Z,22.02
2017-08-11T05:35:09.468Z,19.54
2017-08-11T05:37:37.792Z,18.12
2017-08-11T05:40:06.145Z,14.80
2017-08-11T05:42:34.459Z,16.10
2017-08-11T05:45:02.774Z,16.82
2017-08-11T05:47:31.109Z,14.84
2017-08-11T05:49:59.429Z,15.22
2017-08-11T05:52:27.768Z,16.12
2017-08-11T05:54:56.084Z,14.50
2017-08-11T05:57:24.415Z,14.06
2017-08-11T05:59:52.736Z,12.92
2017-08-11T06:02:21.090Z,13.38
2017-08-11T06:04:49.413Z,13.88
2017-08-11T06:07:17.729Z,13.78
2017-08-11T06:09:46.072Z,14.72
2017-08-11T06:12:14.396Z,15.72
2017-08-11T06:14:42.741Z,15.82
2017-08-11T06:17:11.054Z,15.00
2017-08-11T06:19:39.394Z,15.28
2017-08-11T06:22:06.952Z,15.36
2017-08-11T06:24:35.299Z,17.26
2017-08-11T06:27:03.624Z,14.96
2017-08-11T06:29:31.955Z,17.98
2017-08-11T06:32:00.284Z,16.34
2017-08-11T06:34:28.623Z,16.34
2017-08-11T06:36:56.941Z,17.70
2017-08-11T06:39:25.288Z,19.64
2017-08-11T06:41:53.617Z,17.00
2017-08-11T06:44:21.931Z,18.78
2017-08-11T06:46:50.272Z,19.64
2017-08-11T06:49:18.588Z,26.68
2017-08-11T06:51:46.943Z,23.88
2017-08-11T06:54:15.257Z,23.34
2017-08-11T06:56:43.607Z,20.04
2017-08-11T06:59:11.939Z,20.80
2017-08-11T07:01:40.280Z,20.28
2017-08-11T07:04:08.591Z,18.60
2017-08-11T07:06:36.932Z,20.28
2017-08-11T07:09:05.237Z,17.62
2017-08-11T07:11:33.595Z,20.52
2017-08-11T07:14:01.917Z,19.84
2017-08-11T07:16:30.239Z,20.12
2017-08-11T07:18:58.602Z,20.32
2017-08-11T07:21:26.153Z,18.36
2017-08-11T07:23:54.495Z,18.38
2017-08-11T07:26:22.815Z,17.96
2017-08-11T07:28:51.160Z,19.08
2017-08-11T07:31:19.475Z,19.02
2017-08-11T07:33:47.810Z,18.22
2017-08-11T07:36:16.130Z,17.56
2017-08-11T07:38:44.663Z,18.44
2017-08-11T07:41:12.979Z,18.30
2017-08-11T07:43:41.315Z,16.32
2017-08-11T07:46:09.643Z,17.78
2017-08-11T07:48:37.975Z,17.84
2017-08-11T07:51:06.307Z,18.40
2017-08-11T07:53:34.636Z,15.40
2017-08-11T07:56:02.975Z,14.40
2017-08-11T07:58:31.311Z,14.00
2017-08-11T08:00:59.655Z,14.48
2017-08-11T08:03:28.136Z,14.12
2017-08-11T08:05:56.476Z,14.74
2017-08-11T08:08:24.791Z,15.36
2017-08-11T08:10:53.135Z,14.42
2017-08-11T08:13:21.456Z,15.10
2017-08-11T08:15:49.819Z,14.12
2017-08-11T08:18:18.133Z,14.18
2017-08-11T08:20:46.456Z,13.98
2017-08-11T08:23:14.030Z,14.54
2017-08-11T08:25:42.347Z,13.64
2017-08-11T08:28:10.687Z,14.10
2017-08-11T08:30:39.015Z,12.74
2017-08-11T08:33:07.351Z,13.36
2017-08-11T08:35:35.660Z,14.52
2017-08-11T08:38:04.008Z,13.72
2017-08-11T08:40:32.319Z,13.82
2017-08-11T08:43:00.661Z,13.62
2017-08-11T08:45:28.997Z,14.42
2017-08-11T08:47:57.352Z,13.82
2017-08-11T08:50:25.704Z,15.40
2017-08-11T08:52:54.019Z,14.96
2017-08-11T08:55:22.363Z,13.22
2017-08-11T08:57:50.684Z,13.84
2017-08-11T09:00:19.044Z,14.40
2017-08-11T09:02:47.356Z,14.60
2017-08-11T09:05:15.704Z,13.92
2017-08-11T09:07:44.027Z,14.84
2017-08-11T09:10:12.372Z,16.00
2017-08-11T09:12:40.690Z,13.90
2017-08-11T09:15:09.015Z,13.92
2017-08-11T09:17:37.356Z,14.82
2017-08-11T09:20:05.672Z,15.84
2017-08-11T09:22:34.012Z,13.88
2017-08-11T09:25:14.132Z,13.38
2017-08-11T09:27:53.061Z,14.36
2017-08-11T09:30:33.296Z,13.18
2017-08-11T09:33:13.385Z,11.82
2017-08-11T09:36:03.280Z,12.82
2017-08-11T09:38:31.615Z,13.56
2017-08-11T09:40:59.932Z,11.70
2017-08-11T09:43:28.269Z,12.46
2017-08-11T09:45:56.587Z,13.72
2017-08-11T09:48:24.923Z,11.34
2017-08-11T09:50:53.244Z,12.16
2017-08-11T09:53:21.588Z,12.18
2017-08-11T09:55:49.915Z,11.40
2017-08-11T09:58:18.282Z,10.86
2017-08-11T10:00:46.623Z,10.14
2017-08-11T10:03:14.936Z,11.78
2017-08-11T10:05:43.299Z,12.40
2017-08-11T10:08:11.615Z,12.76
2017-08-11T10:10:39.947Z,12.98
2017-08-11T10:13:08.272Z,12.76
2017-08-11T10:15:36.610Z,11.60
2017-08-11T10:18:04.928Z,12.64
2017-08-11T10:20:33.268Z,13.52
2017-08-11T10:23:01.583Z,12.10
2017-08-11T10:25:29.905Z,12.36
2017-08-11T10:27:58.243Z,12.46
2017-08-11T10:30:26.567Z,11.06
2017-08-11T10:32:54.904Z,12.06
2017-08-11T10:35:23.223Z,12.98
2017-08-11T10:37:51.583Z,11.70
2017-08-11T10:40:19.906Z,12.64
2017-08-11T10:42:48.252Z,12.96
2017-08-11T10:45:16.575Z,11.94
2017-08-11T10:47:44.928Z,11.96
2017-08-11T10:50:13.247Z,12.50
2017-08-11T10:52:41.556Z,13.26
2017-08-11T10:55:09.887Z,13.46
2017-08-11T10:57:38.207Z,12.28
2017-08-11T11:00:06.545Z,13.86
2017-08-11T11:02:34.860Z,14.80
2017-08-11T11:05:03.191Z,14.02
2017-08-11T11:07:31.498Z,13.16
2017-08-11T11:09:59.837Z,12.86
2017-08-11T11:12:28.147Z,13.20
2017-08-11T11:14:56.503Z,12.84
2017-08-11T11:17:24.816Z,11.50
2017-08-11T11:19:53.170Z,12.06
2017-08-11T11:22:21.495Z,12.10
2017-08-11T11:24:49.809Z,12.20
2017-08-11T11:27:18.149Z,13.08
2017-08-11T11:29:46.469Z,13.40
2017-08-11T11:32:14.810Z,11.50
2017-08-11T11:34:43.118Z,9.94
2017-08-11T11:37:11.455Z,10.76
2017-08-11T11:39:39.767Z,9.74
2017-08-11T11:42:08.096Z,10.48
2017-08-11T11:44:36.408Z,10.06
2017-08-11T11:47:04.735Z,10.24
2017-08-11T11:49:33.041Z,11.00
2017-08-11T11:52:01.376Z,10.60
2017-08-11T11:54:29.689Z,12.14
2017-08-11T11:56:58.002Z,12.14
2017-08-11T11:59:26.349Z,10.70
2017-08-11T12:01:54.668Z,10.18
2017-08-11T12:04:23.004Z,10.50
2017-08-11T12:06:51.320Z,10.78
2017-08-11T12:09:19.651Z,10.80
2017-08-11T12:11:47.959Z,11.50
2017-08-11T12:14:16.332Z,10.14
2017-08-11T12:16:44.648Z,11.08
2017-08-11T12:19:12.986Z,9.54
2017-08-11T12:21:40.532Z,10.22
2017-08-11T12:24:08.924Z,10.26
2017-08-11T12:26:37.255Z,9.88
2017-08-11T12:29:05.579Z,10.92
2017-08-11T12:31:33.915Z,11.74
2017-08-11T12:34:02.236Z,11.12
2017-08-11T12:36:30.571Z,11.46
2017-08-11T12:38:58.891Z,10.10
2017-08-11T12:41:27.224Z,9.36
2017-08-11T12:43:55.551Z,9.36
2017-08-11T12:46:23.879Z,8.98
2017-08-11T12:48:52.203Z,11.38
2017-08-11T12:51:20.559Z,9.66
2017-08-11T12:53:48.872Z,10.12
2017-08-11T12:56:17.186Z,11.42
2017-08-11T12:58:45.526Z,12.90
2017-08-11T13:01:13.849Z,12.50
2017-08-11T13:03:42.184Z,14.32
2017-08-11T13:06:10.515Z,11.08
2017-08-11T13:08:38.851Z,10.10
2017-08-11T13:11:07.179Z,11.56
2017-08-11T13:13:35.516Z,12.22
2017-08-11T13:16:03.834Z,11.72
2017-08-11T13:18:32.173Z,12.78
2017-08-11T13:21:00.482Z,12.08
2017-08-11T13:23:28.801Z,10.52
2017-08-11T13:25:57.152Z,11.90
2017-08-11T13:28:25.473Z,10.00
2017-08-11T13:30:53.816Z,11.52
2017-08-11T13:33:22.131Z,11.38
2017-08-11T13:35:50.471Z,11.04
2017-08-11T13:38:18.787Z,11.02
2017-08-11T13:40:47.138Z,11.12
2017-08-11T13:43:15.458Z,10.72
2017-08-11T13:45:43.793Z,11.36
2017-08-11T13:48:12.100Z,11.30
2017-08-11T13:50:40.431Z,11.38
2017-08-11T13:53:08.743Z,10.44
2017-08-11T13:55:37.055Z,10.94
2017-08-11T13:58:05.390Z,10.20
2017-08-11T14:00:33.696Z,9.82
2017-08-11T14:03:02.031Z,10.90
2017-08-11T14:05:30.343Z,11.00
2017-08-11T14:07:58.676Z,10.60
2017-08-11T14:10:27.001Z,9.52
2017-08-11T14:12:55.336Z,9.86
2017-08-11T14:15:23.646Z,9.72
2017-08-11T14:17:51.973Z,8.98
2017-08-11T14:20:20.291Z,10.28
2017-08-11T14:22:48.640Z,10.90
2017-08-11T14:25:16.959Z,12.34
2017-08-11T14:27:45.277Z,11.62
2017-08-11T14:30:13.630Z,11.64
2017-08-11T14:32:41.939Z,11.78
2017-08-11T14:35:10.289Z,11.24
2017-08-11T14:37:38.645Z,11.92
2017-08-11T14:40:06.988Z,10.74
2017-08-11T14:42:35.309Z,12.28
2017-08-11T14:45:02.887Z,13.38
2017-08-11T14:47:31.210Z,13.54
2017-08-11T14:49:59.547Z,13.38
2017-08-11T14:52:27.876Z,12.50
2017-08-11T14:54:56.237Z,14.06
2017-08-11T14:57:24.552Z,14.08
2017-08-11T14:59:52.868Z,14.34
2017-08-11T15:02:21.204Z,13.20
2017-08-11T15:04:49.515Z,14.22
2017-08-11T15:07:17.853Z,15.78
2017-08-11T15:09:46.176Z,16.08
2017-08-11T15:12:14.516Z,13.70
2017-08-11T15:14:42.089Z,14.22
2017-08-11T15:17:10.434Z,15.10
2017-08-11T15:19:38.774Z,17.30
2017-08-11T15:22:07.108Z,14.56
2017-08-11T15:24:35.431Z,17.24
2017-08-11T15:27:03.763Z,16.38
2017-08-11T15:29:32.075Z,15.68
2017-08-11T15:32:00.429Z,15.46
2017-08-11T15:34:27.975Z,15.60
2017-08-11T15:36:56.298Z,15.58
2017-08-11T15:39:24.636Z,25.50
2017-08-11T15:41:52.951Z,17.52
2017-08-11T15:44:21.305Z,16.80
2017-08-11T15:46:49.623Z,16.60
2017-08-11T15:49:17.962Z,15.86
2017-08-11T15:51:46.287Z,16.98
2017-08-11T15:54:14.629Z,15.74
2017-08-11T15:56:42.957Z,15.86
2017-08-11T15:59:11.297Z,16.02
2017-08-11T16:01:39.641Z,17.10
2017-08-11T16:04:07.978Z,16.56
2017-08-11T16:06:36.301Z,15.90
2017-08-11T16:09:04.616Z,19.60
2017-08-11T16:11:32.951Z,17.06
2017-08-11T16:14:01.264Z,18.54
2017-08-11T16:16:29.603Z,18.22
2017-08-11T16:18:57.919Z,18.18
2017-08-11T16:21:26.288Z,17.22
2017-08-11T16:23:53.844Z,17.74
2017-08-11T16:26:22.181Z,18.12
2017-08-11T16:28:50.500Z,15.56
2017-08-11T16:31:18.828Z,16.56
2017-08-11T16:33:47.159Z,17.18
2017-08-11T16:36:15.495Z,17.46
2017-08-11T16:38:43.819Z,17.70
2017-08-11T16:41:12.134Z,17.00
2017-08-11T16:43:40.484Z,18.08
2017-08-11T16:46:08.794Z,17.66
2017-08-11T16:48:37.136Z,18.12
2017-08-11T16:51:05.460Z,18.38
2017-08-11T16:53:33.791Z,16.96
2017-08-11T16:56:02.116Z,17.68
2017-08-11T16:58:30.451Z,18.56
2017-08-11T17:00:58.768Z,18.46
2017-08-11T17:03:27.108Z,18.74
2017-08-11T17:05:55.427Z,17.26
2017-08-11T17:08:23.746Z,16.38
2017-08-11T17:10:51.324Z,19.26
2017-08-11T17:13:19.677Z,19.32
2017-08-11T17:15:48.012Z,18.92
2017-08-11T17:18:16.330Z,19.00
2017-08-11T17:20:44.672Z,21.06
2017-08-11T17:23:12.994Z,19.22
2017-08-11T17:25:41.336Z,19.14
2017-08-11T17:28:09.744Z,20.70
2017-08-11T17:30:38.079Z,19.62
2017-08-11T17:33:06.407Z,18.26
2017-08-11T17:35:34.752Z,20.68
2017-08-11T17:38:03.080Z,19.14
2017-08-11T17:40:31.395Z,19.08
2017-08-11T17:42:59.832Z,19.56
2017-08-11T17:45:28.171Z,19.00
2017-08-11T17:47:56.587Z,18.10
2017-08-11T17:50:24.915Z,20.38
2017-08-11T17:52:53.343Z,20.28
2017-08-11T17:55:21.661Z,21.44
2017-08-11T17:57:50.003Z,20.12
2017-08-11T18:00:18.316Z,21.90
2017-08-11T18:02:46.756Z,21.36
2017-08-11T18:05:15.078Z,20.90
2017-08-11T18:07:43.417Z,22.30
2017-08-11T18:10:10.981Z,23.16
2017-08-11T18:12:39.319Z,22.46
2017-08-11T18:15:07.664Z,21.82
2017-08-11T18:17:36.079Z,19.98
2017-08-11T18:20:04.428Z,34.58
2017-08-11T18:22:32.770Z,25.84
2017-08-11T18:25:01.162Z,25.46
2017-08-11T18:27:29.493Z,23.38
2017-08-11T18:29:57.856Z,23.22
2017-08-11T18:32:26.300Z,24.02
2017-08-11T18:34:53.905Z,25.74
2017-08-11T18:37:22.294Z,27.42
2017-08-11T18:39:50.661Z,27.18
2017-08-11T18:42:19.039Z,29.32
2017-08-11T18:44:47.371Z,28.06
2017-08-11T18:47:15.790Z,29.16
2017-08-11T18:49:44.148Z,34.48
2017-08-11T18:52:12.483Z,28.72
2017-08-11T18:54:40.051Z,28.64
2017-08-11T18:57:08.435Z,28.54
2017-08-11T18:59:36.835Z,30.96
2017-08-11T19:02:05.284Z,29.32
2017-08-11T19:04:33.645Z,30.94
2017-08-11T19:07:01.996Z,29.42
2017-08-11T19:09:30.383Z,30.66
2017-08-11T19:11:58.804Z,31.88
2017-08-11T19:14:27.196Z,30.14
2017-08-11T19:16:55.611Z,30.94
2017-08-11T19:19:24.027Z,29.16
2017-08-11T19:21:52.470Z,29.64
2017-08-11T19:24:20.811Z,32.68
2017-08-11T19:26:49.135Z,31.60
2017-08-11T19:29:16.742Z,33.30
2017-08-11T19:31:45.076Z,30.46
2017-08-11T19:34:13.496Z,29.78
2017-08-11T19:36:41.816Z,29.18
2017-08-11T19:39:10.152Z,30.86
2017-08-11T19:41:38.472Z,30.72
2017-08-11T19:44:06.927Z,28.54
2017-08-11T19:46:35.262Z,31.18
2017-08-11T19:49:03.618Z,28.44
2017-08-11T19:51:31.994Z,29.84
2017-08-11T19:54:00.320Z,28.86
2017-08-11T19:56:28.740Z,28.44
2017-08-11T19:58:57.136Z,31.14
2017-08-11T20:01:25.529Z,28.60
2017-08-11T20:03:53.915Z,29.28
2017-08-11T20:06:22.251Z,27.90
2017-08-11T20:08:50.640Z,28.78
2017-08-11T20:11:19.053Z,26.96
2017-08-11T20:13:47.411Z,26.84
2017-08-11T20:16:15.806Z,29.70
2017-08-11T20:18:44.187Z,26.88
2017-08-11T20:21:12.527Z,30.50
2017-08-11T20:23:40.868Z,32.28
2017-08-11T20:26:09.194Z,34.80
2017-08-11T20:28:37.598Z,26.54
2017-08-11T20:31:05.919Z,27.50
2017-08-11T20:33:34.259Z,25.70
2017-08-11T20:36:02.571Z,27.02
2017-08-11T20:38:30.936Z,25.56
2017-08-11T20:40:59.268Z,25.14
2017-08-11T20:43:27.640Z,26.22
2017-08-11T20:45:56.514Z,27.50
2017-08-11T20:48:25.941Z,26.44
2017-08-11T20:50:54.279Z,26.36
2017-08-11T20:53:22.592Z,25.94
2017-08-11T20:55:50.926Z,26.92
2017-08-11T20:58:19.249Z,27.20
2017-08-11T21:00:47.615Z,28.46
2017-08-11T21:03:16.005Z,32.36
2017-08-11T21:05:44.343Z,32.50
2017-08-11T21:08:12.660Z,31.44
2017-08-11T21:10:40.995Z,31.36
2017-08-11T21:13:08.591Z,29.16
2017-08-11T21:15:36.999Z,26.84
2017-08-11T21:18:05.320Z,26.72
2017-08-11T21:20:33.631Z,24.44
2017-08-11T21:23:01.964Z,27.00
2017-08-11T21:25:30.283Z,27.50
2017-08-11T21:27:58.617Z,25.92
2017-08-11T21:30:26.936Z,27.92
2017-08-11T21:32:55.278Z,26.14
2017-08-11T21:35:23.591Z,27.56
2017-08-11T21:37:51.936Z,24.20
2017-08-11T21:40:20.261Z,25.44
2017-08-11T21:42:48.609Z,25.50
2017-08-11T21:45:16.927Z,25.10
2017-08-11T21:47:45.244Z,25.72
2017-08-11T21:50:13.584Z,24.00
2017-08-11T21:52:41.909Z,26.68
2017-08-11T21:55:10.252Z,26.08
2017-08-11T21:57:38.567Z,32.52
2017-08-11T22:00:06.902Z,30.18
2017-08-11T22:02:35.214Z,30.24
2017-08-11T22:05:03.559Z,31.64
2017-08-11T22:07:31.871Z,28.78
2017-08-11T22:10:00.202Z,28.14
2017-08-11T22:12:28.510Z,31.64
2017-08-11T22:14:56.893Z,40.16
2017-08-11T22:17:25.208Z,32.76
2017-08-11T22:19:53.587Z,30.58
2017-08-11T22:22:21.924Z,30.26
2017-08-11T22:24:50.236Z,28.02
2017-08-11T22:27:18.566Z,28.70
2017-08-11T22:29:46.924Z,29.38
2017-08-11T22:32:15.263Z,31.84
2017-08-11T22:34:43.659Z,31.46
2017-08-11T22:37:11.995Z,31.68
2017-08-11T22:39:40.306Z,31.58
2017-08-11T22:42:08.663Z,32.70
2017-08-11T22:44:36.983Z,31.62
2017-08-11T22:47:05.301Z,30.20
2017-08-11T22:49:33.640Z,30.52
2017-08-11T22:52:01.956Z,30.70
2017-08-11T22:54:29.527Z,28.46
2017-08-11T22:56:57.852Z,29.02
2017-08-11T22:59:26.245Z,29.86
2017-08-11T23:01:54.564Z,28.88
2017-08-11T23:04:22.999Z,28.88
2017-08-11T23:06:51.307Z,27.22
2017-08-11T23:09:19.626Z,28.64
2017-08-11T23:11:47.975Z,29.98
2017-08-11T23:14:16.291Z,28.80
2017-08-11T23:16:44.634Z,28.88
2017-08-11T23:19:13.045Z,29.82
2017-08-11T23:21:41.386Z,28.94
2017-08-11T23:24:09.701Z,29.04
2017-08-11T23:26:38.060Z,30.02
2017-08-11T23:29:06.377Z,29.62
2017-08-11T23:31:34.691Z,27.66
2017-08-11T23:34:03.036Z,27.12
2017-08-11T23:36:31.392Z,29.28
2017-08-11T23:38:59.731Z,29.12
2017-08-11T23:41:28.051Z,28.40
2017-08-11T23:43:56.440Z,26.74
2017-08-11T23:46:24.750Z,26.42
2017-08-11T23:48:53.101Z,28.48
2017-08-11T23:51:21.424Z,28.00
2017-08-11T23:53:49.784Z,26.16
2017-08-11T23:56:18.116Z,60.46
2017-08-11T23:58:46.436Z,33.28
